sensor_id;sensor_type;location;lat;lon;timestamp;P1;P4;P2;P0;N10;N4;N25;N1;N05;TS
44530;SPS30;30240;47.418;0.700;2022-09-19T00:01:49;2.0032425;;2.0032425;;;;;;;
44530;SPS30;30240;47.418;0.700;2022-09-19T00:04:14;2.3729324;;2.3729324;;;;;;;
44530;SPS30;30240;47.418;0.700;2022-09-19T00:06:39;2.3729324;;2.3729324;;;;;;;
44530;SPS30;30240;47.418;0.700;2022-09-19T00:09:04;2.1216297;;2.1216297;;;;;;;
44530;SPS30;30240;47.418;0.700;2022-09-19T00:11:28;2.3230937;;2.3230937;;;;;;;
44530;SPS30;30240;47.418;0.700;2022-09-19T00:13:54;1.7297337;;1.7297337;;;;;;;
44530;SPS30;30240;47.418;0.700;2022-09-19T00:16:19;2.0218751;;2.0218751;;;;;;;
44530;SPS30;30240;47.418;0.700;2022-09-19T00:18:43;2.0218751;;2.0218751;;;;;;;
44530;SPS30;30240;47.418;0.700;2022-09-19T00:21:08;1.6050122;;1.6050122;;;;;;;
44530;SPS30;30240;47.418;0.700;2022-09-19T00:23:33;2.290258;;2.290258;;;;;;;
44530;SPS30;30240;47.418;0.700;2022-09-19T00:25:58;2.098989;;2.098989;;;;;;;
44530;SPS30;30240;47.418;0.700;2022-09-19T00:28:23;1.6759349;;1.6759349;;;;;;;
44530;SPS30;30240;47.418;0.700;2022-09-19T00:30:48;1.6759349;;1.6759349;;;;;;;
44530;SPS30;30240;47.418;0.700;2022-09-19T00:33:13;1.8386861;;1.8386861;;;;;;;
44530;SPS30;30240;47.418;0.700;2022-09-19T00:35:38;2.0388103;;2.0388103;;;;;;;
44530;SPS30;30240;47.418;0.700;2022-09-19T00:38:03;1.7556074;;1.7556074;;;;;;;
44530;SPS30;30240;47.418;0.700;2022-09-19T00:40:28;2.1995182;;2.1995182;;;;;;;
44530;SPS30;30240;47.418;0.700;2022-09-19T00:42:53;2.1995182;;2.1995182;;;;;;;
44530;SPS30;30240;47.418;0.700;2022-09-19T00:45:18;2.026681;;2.026681;;;;;;;
44530;SPS30;30240;47.418;0.700;2022-09-19T00:47:45;1.4876186;;1.4876186;;;;;;;
44530;SPS30;30240;47.418;0.700;2022-09-19T00:50:10;1.9055026;;1.9055026;;;;;;;
44530;SPS30;30240;47.418;0.700;2022-09-19T00:52:36;1.8445601;;1.8445601;;;;;;;
44530;SPS30;30240;47.418;0.700;2022-09-19T00:54:58;1.8445601;;1.8445601;;;;;;;
44530;SPS30;30240;47.418;0.700;2022-09-19T00:57:25;2.069511;;2.069511;;;;;;;
44530;SPS30;30240;47.418;0.700;2022-09-19T00:59:48;1.9770627;;1.9770627;;;;;;;
44530;SPS30;30240;47.418;0.700;2022-09-19T01:02:14;2.466636;;2.466636;;;;;;;
44530;SPS30;30240;47.418;0.700;2022-09-19T01:04:39;2.6038008;;2.6038008;;;;;;;
44530;SPS30;30240;47.418;0.700;2022-09-19T01:07:05;1.9511992;;1.9511992;;;;;;;
44530;SPS30;30240;47.418;0.700;2022-09-19T01:09:33;1.9511992;;1.9511992;;;;;;;
44530;SPS30;30240;47.418;0.700;2022-09-19T01:11:58;2.039471;;2.039471;;;;;;;
44530;SPS30;30240;47.418;0.700;2022-09-19T01:12:12;2.039471;;2.039471;;;;;;;
44530;SPS30;30240;47.418;0.700;2022-09-19T01:12:20;2.039471;;2.039471;;;;;;;
44530;SPS30;30240;47.418;0.700;2022-09-19T01:14:23;2.1458092;;2.1458092;;;;;;;
44530;SPS30;30240;47.418;0.700;2022-09-19T01:14:28;2.1458092;;2.1458092;;;;;;;
44530;SPS30;30240;47.418;0.700;2022-09-19T01:16:44;2.3776805;;2.3776805;;;;;;;
44530;SPS30;30240;47.418;0.700;2022-09-19T01:19:13;2.1341655;;2.1341655;;;;;;;
44530;SPS30;30240;47.418;0.700;2022-09-19T01:21:34;2.1341655;;2.1341655;;;;;;;
44530;SPS30;30240;47.418;0.700;2022-09-19T01:24:10;2.034127;;2.034127;;;;;;;
44530;SPS30;30240;47.418;0.700;2022-09-19T01:26:29;2.4320807;;2.4320807;;;;;;;
44530;SPS30;30240;47.418;0.700;2022-09-19T01:26:37;2.4320807;;2.4320807;;;;;;;
44530;SPS30;30240;47.418;0.700;2022-09-19T01:28:49;2.4743414;;2.4743414;;;;;;;
44530;SPS30;30240;47.418;0.700;2022-09-19T01:31:14;2.7298038;;2.7298038;;;;;;;
44530;SPS30;30240;47.418;0.700;2022-09-19T01:33:38;2.7298038;;2.7298038;;;;;;;
44530;SPS30;30240;47.418;0.700;2022-09-19T01:36:04;2.294054;;2.294054;;;;;;;
44530;SPS30;30240;47.418;0.700;2022-09-19T01:38:28;2.8551097;;2.8551097;;;;;;;
44530;SPS30;30240;47.418;0.700;2022-09-19T01:40:53;2.3792484;;2.3792484;;;;;;;
44530;SPS30;30240;47.418;0.700;2022-09-19T01:43:18;2.089709;;2.089709;;;;;;;
44530;SPS30;30240;47.418;0.700;2022-09-19T01:45:43;2.089709;;2.089709;;;;;;;
44530;SPS30;30240;47.418;0.700;2022-09-19T01:48:11;2.3555064;;2.3555064;;;;;;;
44530;SPS30;30240;47.418;0.700;2022-09-19T01:50:38;2.4597487;;2.4597487;;;;;;;
44530;SPS30;30240;47.418;0.700;2022-09-19T01:53:00;2.4698458;;2.4698458;;;;;;;
44530;SPS30;30240;47.418;0.700;2022-09-19T01:55:25;2.5323272;;2.5323272;;;;;;;
44530;SPS30;30240;47.418;0.700;2022-09-19T01:57:51;2.5323272;;2.5323272;;;;;;;
44530;SPS30;30240;47.418;0.700;2022-09-19T02:00:14;2.5800972;;2.5800972;;;;;;;
44530;SPS30;30240;47.418;0.700;2022-09-19T02:02:41;2.6133513;;2.6133513;;;;;;;
44530;SPS30;30240;47.418;0.700;2022-09-19T02:05:04;2.5543325;;2.5543325;;;;;;;
44530;SPS30;30240;47.418;0.700;2022-09-19T02:07:30;2.42993;;2.42993;;;;;;;
44530;SPS30;30240;47.418;0.700;2022-09-19T02:09:55;2.42993;;2.42993;;;;;;;
44530;SPS30;30240;47.418;0.700;2022-09-19T02:12:18;3.0055788;;3.0055788;;;;;;;
44530;SPS30;30240;47.418;0.700;2022-09-19T02:14:44;2.6344013;;2.6344013;;;;;;;
44530;SPS30;30240;47.418;0.700;2022-09-19T02:17:10;2.8686504;;2.8686504;;;;;;;
44530;SPS30;30240;47.418;0.700;2022-09-19T02:19:35;2.459725;;2.459725;;;;;;;
44530;SPS30;30240;47.418;0.700;2022-09-19T02:21:59;2.459725;;2.459725;;;;;;;
44530;SPS30;30240;47.418;0.700;2022-09-19T02:24:24;3.027325;;3.027325;;;;;;;
44530;SPS30;30240;47.418;0.700;2022-09-19T02:26:48;2.5806053;;2.5806053;;;;;;;
44530;SPS30;30240;47.418;0.700;2022-09-19T02:29:14;2.167462;;2.167462;;;;;;;
44530;SPS30;30240;47.418;0.700;2022-09-19T02:31:38;2.1467245;;2.1467245;;;;;;;
44530;SPS30;30240;47.418;0.700;2022-09-19T02:34:05;3.476781;;3.476781;;;;;;;
44530;SPS30;30240;47.418;0.700;2022-09-19T02:36:29;3.476781;;3.476781;;;;;;;
44530;SPS30;30240;47.418;0.700;2022-09-19T02:38:55;2.616776;;2.604168;;;;;;;
44530;SPS30;30240;47.418;0.700;2022-09-19T02:41:19;2.8950057;;2.8938465;;;;;;;
44530;SPS30;30240;47.418;0.700;2022-09-19T02:43:44;2.4520755;;2.4520755;;;;;;;
44530;SPS30;30240;47.418;0.700;2022-09-19T02:46:09;2.1715262;;2.1715262;;;;;;;
44530;SPS30;30240;47.418;0.700;2022-09-19T02:48:35;2.1715262;;2.1715262;;;;;;;
44530;SPS30;30240;47.418;0.700;2022-09-19T02:51:01;2.2318652;;2.2318652;;;;;;;
44530;SPS30;30240;47.418;0.700;2022-09-19T02:53:24;2.2201216;;2.2201216;;;;;;;
44530;SPS30;30240;47.418;0.700;2022-09-19T02:55:49;2.47183;;2.47183;;;;;;;
44530;SPS30;30240;47.418;0.700;2022-09-19T02:58:13;2.4606864;;2.4606864;;;;;;;
44530;SPS30;30240;47.418;0.700;2022-09-19T03:00:38;2.4606864;;2.4606864;;;;;;;
44530;SPS30;30240;47.418;0.700;2022-09-19T03:03:04;2.047322;;2.047322;;;;;;;
44530;SPS30;30240;47.418;0.700;2022-09-19T03:05:28;2.4949021;;2.4949021;;;;;;;
44530;SPS30;30240;47.418;0.700;2022-09-19T03:07:54;2.5757;;2.5757;;;;;;;
44530;SPS30;30240;47.418;0.700;2022-09-19T03:10:19;1.8837336;;1.8837336;;;;;;;
44530;SPS30;30240;47.418;0.700;2022-09-19T03:12:44;1.8837336;;1.8837336;;;;;;;
44530;SPS30;30240;47.418;0.700;2022-09-19T03:15:09;2.3882725;;2.3882725;;;;;;;
44530;SPS30;30240;47.418;0.700;2022-09-19T03:17:35;1.9333872;;1.9333872;;;;;;;
44530;SPS30;30240;47.418;0.700;2022-09-19T03:19:58;2.3110807;;2.3110807;;;;;;;
44530;SPS30;30240;47.418;0.700;2022-09-19T03:22:23;2.73786;;2.73786;;;;;;;
44530;SPS30;30240;47.418;0.700;2022-09-19T03:24:48;2.73786;;2.73786;;;;;;;
44530;SPS30;30240;47.418;0.700;2022-09-19T03:27:13;2.4124296;;2.4124296;;;;;;;
44530;SPS30;30240;47.418;0.700;2022-09-19T03:29:38;2.8426614;;2.8426614;;;;;;;
44530;SPS30;30240;47.418;0.700;2022-09-19T03:32:03;3.0176632;;3.0176632;;;;;;;
44530;SPS30;30240;47.418;0.700;2022-09-19T03:34:28;2.5867598;;2.5867598;;;;;;;
44530;SPS30;30240;47.418;0.700;2022-09-19T03:36:53;2.5867598;;2.5867598;;;;;;;
44530;SPS30;30240;47.418;0.700;2022-09-19T03:39:18;2.8451037;;2.8451037;;;;;;;
44530;SPS30;30240;47.418;0.700;2022-09-19T03:41:43;1.9757245;;1.9757245;;;;;;;
44530;SPS30;30240;47.418;0.700;2022-09-19T03:44:08;2.5617218;;2.5617218;;;;;;;
44530;SPS30;30240;47.418;0.700;2022-09-19T03:46:34;3.24499;;3.24499;;;;;;;
44530;SPS30;30240;47.418;0.700;2022-09-19T03:48:59;3.24499;;3.24499;;;;;;;
44530;SPS30;30240;47.418;0.700;2022-09-19T03:51:23;2.58236;;2.58236;;;;;;;
44530;SPS30;30240;47.418;0.700;2022-09-19T03:53:49;2.7603357;;2.7603357;;;;;;;
44530;SPS30;30240;47.418;0.700;2022-09-19T03:56:14;3.0903862;;3.0903862;;;;;;;
44530;SPS30;30240;47.418;0.700;2022-09-19T03:58:39;2.4617224;;2.4617224;;;;;;;
44530;SPS30;30240;47.418;0.700;2022-09-19T04:01:04;2.4617224;;2.4617224;;;;;;;
44530;SPS30;30240;47.418;0.700;2022-09-19T04:03:28;2.5354488;;2.5354488;;;;;;;
44530;SPS30;30240;47.418;0.700;2022-09-19T04:05:53;2.4206312;;2.4206312;;;;;;;
44530;SPS30;30240;47.418;0.700;2022-09-19T04:08:19;2.4632373;;2.4632373;;;;;;;
44530;SPS30;30240;47.418;0.700;2022-09-19T04:10:43;2.1860466;;2.1860466;;;;;;;
44530;SPS30;30240;47.418;0.700;2022-09-19T04:13:08;3.0906515;;3.0906515;;;;;;;
44530;SPS30;30240;47.418;0.700;2022-09-19T04:15:33;3.0906515;;3.0906515;;;;;;;
44530;SPS30;30240;47.418;0.700;2022-09-19T04:17:58;2.6853204;;2.6853204;;;;;;;
44530;SPS30;30240;47.418;0.700;2022-09-19T04:20:23;2.8851588;;2.8851588;;;;;;;
44530;SPS30;30240;47.418;0.700;2022-09-19T04:22:48;2.3967433;;2.3967433;;;;;;;
44530;SPS30;30240;47.418;0.700;2022-09-19T04:25:14;2.3692942;;2.3692942;;;;;;;
44530;SPS30;30240;47.418;0.700;2022-09-19T04:27:39;2.3692942;;2.3692942;;;;;;;
44530;SPS30;30240;47.418;0.700;2022-09-19T04:30:04;2.9641347;;2.9641347;;;;;;;
44530;SPS30;30240;47.418;0.700;2022-09-19T04:32:29;3.0346684;;3.0346684;;;;;;;
44530;SPS30;30240;47.418;0.700;2022-09-19T04:34:53;2.830909;;2.830909;;;;;;;
44530;SPS30;30240;47.418;0.700;2022-09-19T04:37:18;2.611296;;2.611296;;;;;;;
44530;SPS30;30240;47.418;0.700;2022-09-19T04:39:43;2.611296;;2.611296;;;;;;;
44530;SPS30;30240;47.418;0.700;2022-09-19T04:42:08;2.6500347;;2.6500347;;;;;;;
44530;SPS30;30240;47.418;0.700;2022-09-19T04:44:33;2.399541;;2.399541;;;;;;;
44530;SPS30;30240;47.418;0.700;2022-09-19T04:46:58;3.018708;;3.018708;;;;;;;
44530;SPS30;30240;47.418;0.700;2022-09-19T04:49:24;2.2511947;;2.2511947;;;;;;;
44530;SPS30;30240;47.418;0.700;2022-09-19T04:51:48;2.2511947;;2.2511947;;;;;;;
44530;SPS30;30240;47.418;0.700;2022-09-19T04:54:13;2.6715043;;2.6715043;;;;;;;
44530;SPS30;30240;47.418;0.700;2022-09-19T04:56:38;3.263287;;3.263287;;;;;;;
44530;SPS30;30240;47.418;0.700;2022-09-19T04:59:03;2.6989472;;2.6989472;;;;;;;
44530;SPS30;30240;47.418;0.700;2022-09-19T05:01:28;2.788742;;2.788742;;;;;;;
44530;SPS30;30240;47.418;0.700;2022-09-19T05:03:53;2.788742;;2.788742;;;;;;;
44530;SPS30;30240;47.418;0.700;2022-09-19T05:06:18;3.0123754;;3.0123754;;;;;;;
44530;SPS30;30240;47.418;0.700;2022-09-19T05:08:43;3.1450653;;3.1450653;;;;;;;
44530;SPS30;30240;47.418;0.700;2022-09-19T05:11:09;3.0628834;;3.0628834;;;;;;;
44530;SPS30;30240;47.418;0.700;2022-09-19T05:13:34;3.1345158;;3.1345158;;;;;;;
44530;SPS30;30240;47.418;0.700;2022-09-19T05:15:59;3.1345158;;3.1345158;;;;;;;
44530;SPS30;30240;47.418;0.700;2022-09-19T05:18:23;2.7594838;;2.7594838;;;;;;;
44530;SPS30;30240;47.418;0.700;2022-09-19T05:20:48;3.4868085;;3.4868085;;;;;;;
44530;SPS30;30240;47.418;0.700;2022-09-19T05:23:13;3.4366143;;3.4366143;;;;;;;
44530;SPS30;30240;47.418;0.700;2022-09-19T05:25:38;3.120142;;3.120142;;;;;;;
44530;SPS30;30240;47.418;0.700;2022-09-19T05:28:04;3.120142;;3.120142;;;;;;;
44530;SPS30;30240;47.418;0.700;2022-09-19T05:30:28;2.6979198;;2.6979198;;;;;;;
44530;SPS30;30240;47.418;0.700;2022-09-19T05:32:54;3.645512;;3.645512;;;;;;;
44530;SPS30;30240;47.418;0.700;2022-09-19T05:35:18;3.1201394;;3.1201394;;;;;;;
44530;SPS30;30240;47.418;0.700;2022-09-19T05:37:44;3.0082722;;3.0082722;;;;;;;
44530;SPS30;30240;47.418;0.700;2022-09-19T05:40:09;3.3028152;;3.3028152;;;;;;;
44530;SPS30;30240;47.418;0.700;2022-09-19T05:42:33;3.3028152;;3.3028152;;;;;;;
44530;SPS30;30240;47.418;0.700;2022-09-19T05:44:58;3.4357195;;3.4357195;;;;;;;
44530;SPS30;30240;47.418;0.700;2022-09-19T05:47:23;3.2128892;;3.2128892;;;;;;;
44530;SPS30;30240;47.418;0.700;2022-09-19T05:49:48;3.5295594;;3.5295594;;;;;;;
44530;SPS30;30240;47.418;0.700;2022-09-19T05:52:13;3.4722345;;3.4722345;;;;;;;
44530;SPS30;30240;47.418;0.700;2022-09-19T05:54:38;3.4722345;;3.4722345;;;;;;;
44530;SPS30;30240;47.418;0.700;2022-09-19T05:57:03;3.3529532;;3.3529532;;;;;;;
44530;SPS30;30240;47.418;0.700;2022-09-19T05:59:29;3.208242;;3.208242;;;;;;;
44530;SPS30;30240;47.418;0.700;2022-09-19T06:01:53;3.7858822;;3.7858822;;;;;;;
44530;SPS30;30240;47.418;0.700;2022-09-19T06:04:18;4.433807;;4.433807;;;;;;;
44530;SPS30;30240;47.418;0.700;2022-09-19T06:06:43;4.433807;;4.433807;;;;;;;
44530;SPS30;30240;47.418;0.700;2022-09-19T06:09:09;4.48876;;4.4867454;;;;;;;
44530;SPS30;30240;47.418;0.700;2022-09-19T06:11:33;3.5305889;;3.5305889;;;;;;;
44530;SPS30;30240;47.418;0.700;2022-09-19T06:13:58;3.5966473;;3.5966473;;;;;;;
44530;SPS30;30240;47.418;0.700;2022-09-19T06:16:24;2.9239194;;2.9239194;;;;;;;
44530;SPS30;30240;47.418;0.700;2022-09-19T06:18:48;2.9239194;;2.9239194;;;;;;;
44530;SPS30;30240;47.418;0.700;2022-09-19T06:21:13;3.2802632;;3.2802632;;;;;;;
44530;SPS30;30240;47.418;0.700;2022-09-19T06:23:38;3.5925288;;3.5925288;;;;;;;
44530;SPS30;30240;47.418;0.700;2022-09-19T06:26:11;3.7463312;;3.7463312;;;;;;;
44530;SPS30;30240;47.418;0.700;2022-09-19T06:28:28;3.118334;;3.118334;;;;;;;
44530;SPS30;30240;47.418;0.700;2022-09-19T06:30:53;3.118334;;3.118334;;;;;;;
44530;SPS30;30240;47.418;0.700;2022-09-19T06:33:18;3.1085763;;3.1085763;;;;;;;
44530;SPS30;30240;47.418;0.700;2022-09-19T06:35:43;3.4359634;;3.4359634;;;;;;;
44530;SPS30;30240;47.418;0.700;2022-09-19T06:38:08;3.1585767;;3.1585767;;;;;;;
44530;SPS30;30240;47.418;0.700;2022-09-19T06:40:33;3.0058014;;3.0058014;;;;;;;
44530;SPS30;30240;47.418;0.700;2022-09-19T06:42:58;3.0058014;;3.0058014;;;;;;;
44530;SPS30;30240;47.418;0.700;2022-09-19T06:45:23;3.0932825;;3.0932825;;;;;;;
44530;SPS30;30240;47.418;0.700;2022-09-19T06:47:48;3.1952844;;3.1952844;;;;;;;
44530;SPS30;30240;47.418;0.700;2022-09-19T06:50:13;3.7652805;;3.7652805;;;;;;;
44530;SPS30;30240;47.418;0.700;2022-09-19T06:52:38;3.3132148;;3.3132148;;;;;;;
44530;SPS30;30240;47.418;0.700;2022-09-19T06:52:44;3.3132148;;3.3132148;;;;;;;
44530;SPS30;30240;47.418;0.700;2022-09-19T06:55:04;3.3132148;;3.3132148;;;;;;;
44530;SPS30;30240;47.418;0.700;2022-09-19T06:57:28;3.244753;;3.244753;;;;;;;
44530;SPS30;30240;47.418;0.700;2022-09-19T06:59:53;2.7729297;;2.7729297;;;;;;;
44530;SPS30;30240;47.418;0.700;2022-09-19T07:02:18;3.0599592;;3.0599592;;;;;;;
44530;SPS30;30240;47.418;0.700;2022-09-19T07:04:43;2.5300012;;2.5300012;;;;;;;
44530;SPS30;30240;47.418;0.700;2022-09-19T07:07:08;2.640485;;2.640485;;;;;;;
44530;SPS30;30240;47.418;0.700;2022-09-19T07:09:33;2.640485;;2.640485;;;;;;;
44530;SPS30;30240;47.418;0.700;2022-09-19T07:11:58;2.6228025;;2.6228025;;;;;;;
44530;SPS30;30240;47.418;0.700;2022-09-19T07:14:23;2.8262098;;2.8262098;;;;;;;
44530;SPS30;30240;47.418;0.700;2022-09-19T07:16:48;2.9568295;;2.9568295;;;;;;;
44530;SPS30;30240;47.418;0.700;2022-09-19T07:19:13;2.0941708;;2.0941708;;;;;;;
44530;SPS30;30240;47.418;0.700;2022-09-19T07:21:38;2.0941708;;2.0941708;;;;;;;
44530;SPS30;30240;47.418;0.700;2022-09-19T07:24:04;2.1111813;;2.1111813;;;;;;;
44530;SPS30;30240;47.418;0.700;2022-09-19T07:26:28;2.6531866;;2.6531866;;;;;;;
44530;SPS30;30240;47.418;0.700;2022-09-19T07:28:53;2.1588364;;2.1588364;;;;;;;
44530;SPS30;30240;47.418;0.700;2022-09-19T07:31:18;1.9731132;;1.9731132;;;;;;;
44530;SPS30;30240;47.418;0.700;2022-09-19T07:33:43;1.9731132;;1.9731132;;;;;;;
44530;SPS30;30240;47.418;0.700;2022-09-19T07:36:08;2.1574025;;2.1574025;;;;;;;
44530;SPS30;30240;47.418;0.700;2022-09-19T07:38:33;2.2435882;;2.2435882;;;;;;;
44530;SPS30;30240;47.418;0.700;2022-09-19T07:40:59;1.7895111;;1.7895111;;;;;;;
44530;SPS30;30240;47.418;0.700;2022-09-19T07:43:23;1.8700637;;1.8700637;;;;;;;
44530;SPS30;30240;47.418;0.700;2022-09-19T07:45:49;1.8700637;;1.8700637;;;;;;;
44530;SPS30;30240;47.418;0.700;2022-09-19T07:48:14;2.049046;;2.049046;;;;;;;
44530;SPS30;30240;47.418;0.700;2022-09-19T07:50:38;2.186281;;2.186281;;;;;;;
44530;SPS30;30240;47.418;0.700;2022-09-19T07:53:04;2.3409946;;2.3409946;;;;;;;
44530;SPS30;30240;47.418;0.700;2022-09-19T07:55:28;1.8007637;;1.8007637;;;;;;;
44530;SPS30;30240;47.418;0.700;2022-09-19T07:57:54;1.8007637;;1.8007637;;;;;;;
44530;SPS30;30240;47.418;0.700;2022-09-19T08:00:18;2.3135219;;2.3135219;;;;;;;
44530;SPS30;30240;47.418;0.700;2022-09-19T08:02:43;1.9191958;;1.9191958;;;;;;;
44530;SPS30;30240;47.418;0.700;2022-09-19T08:05:08;3.2471027;;3.2471027;;;;;;;
44530;SPS30;30240;47.418;0.700;2022-09-19T08:07:33;2.3064866;;2.3064866;;;;;;;
44530;SPS30;30240;47.418;0.700;2022-09-19T08:09:58;2.3064866;;2.3064866;;;;;;;
44530;SPS30;30240;47.418;0.700;2022-09-19T08:12:23;2.349006;;2.3441415;;;;;;;
44530;SPS30;30240;47.418;0.700;2022-09-19T08:14:48;2.2145457;;2.2143815;;;;;;;
44530;SPS30;30240;47.418;0.700;2022-09-19T08:17:13;2.1097307;;2.096413;;;;;;;
44530;SPS30;30240;47.418;0.700;2022-09-19T08:19:38;2.2326877;;2.2118878;;;;;;;
44530;SPS30;30240;47.418;0.700;2022-09-19T08:22:04;2.2326877;;2.2118878;;;;;;;
44530;SPS30;30240;47.418;0.700;2022-09-19T08:24:28;1.9791476;;1.9791476;;;;;;;
44530;SPS30;30240;47.418;0.700;2022-09-19T08:26:53;1.2879121;;1.2879121;;;;;;;
44530;SPS30;30240;47.418;0.700;2022-09-19T08:29:18;1.7201542;;1.7201542;;;;;;;
44530;SPS30;30240;47.418;0.700;2022-09-19T08:31:43;1.9085058;;1.9085058;;;;;;;
44530;SPS30;30240;47.418;0.700;2022-09-19T08:34:08;1.9085058;;1.9085058;;;;;;;
44530;SPS30;30240;47.418;0.700;2022-09-19T08:36:34;1.6249712;;1.6249712;;;;;;;
44530;SPS30;30240;47.418;0.700;2022-09-19T08:38:58;2.032987;;2.032987;;;;;;;
44530;SPS30;30240;47.418;0.700;2022-09-19T08:41:32;1.5256622;;1.5256622;;;;;;;
44530;SPS30;30240;47.418;0.700;2022-09-19T08:41:38;1.5256622;;1.5256622;;;;;;;
44530;SPS30;30240;47.418;0.700;2022-09-19T08:43:50;1.9312171;;1.9312171;;;;;;;
44530;SPS30;30240;47.418;0.700;2022-09-19T08:46:14;1.3639162;;1.3639162;;;;;;;
44530;SPS30;30240;47.418;0.700;2022-09-19T08:48:44;1.3639162;;1.3639162;;;;;;;
44530;SPS30;30240;47.418;0.700;2022-09-19T08:51:04;1.8957192;;1.8957192;;;;;;;
44530;SPS30;30240;47.418;0.700;2022-09-19T08:53:30;1.6046492;;1.6046492;;;;;;;
44530;SPS30;30240;47.418;0.700;2022-09-19T08:55:54;1.5473946;;1.5473946;;;;;;;
44530;SPS30;30240;47.418;0.700;2022-09-19T08:58:18;1.3024579;;1.3024579;;;;;;;
44530;SPS30;30240;47.418;0.700;2022-09-19T09:00:44;1.3024579;;1.3024579;;;;;;;
44530;SPS30;30240;47.418;0.700;2022-09-19T09:03:11;1.403932;;1.403932;;;;;;;
44530;SPS30;30240;47.418;0.700;2022-09-19T09:05:37;1.9066968;;1.9066968;;;;;;;
44530;SPS30;30240;47.418;0.700;2022-09-19T09:05:42;1.9066968;;1.9066968;;;;;;;
44530;SPS30;30240;47.418;0.700;2022-09-19T09:08:00;1.817369;;1.7669266;;;;;;;
44530;SPS30;30240;47.418;0.700;2022-09-19T09:10:26;1.0928497;;1.0923207;;;;;;;
44530;SPS30;30240;47.418;0.700;2022-09-19T09:10:34;1.0928497;;1.0923207;;;;;;;
44530;SPS30;30240;47.418;0.700;2022-09-19T09:10:40;1.0928497;;1.0923207;;;;;;;
44530;SPS30;30240;47.418;0.700;2022-09-19T09:10:47;1.0928497;;1.0923207;;;;;;;
44530;SPS30;30240;47.418;0.700;2022-09-19T09:12:52;1.0928497;;1.0923207;;;;;;;
44530;SPS30;30240;47.418;0.700;2022-09-19T09:15:17;1.6149275;;1.571499;;;;;;;
44530;SPS30;30240;47.418;0.700;2022-09-19T09:17:41;1.6806253;;1.6791233;;;;;;;
44530;SPS30;30240;47.418;0.700;2022-09-19T09:17:46;1.6806253;;1.6791233;;;;;;;
44530;SPS30;30240;47.418;0.700;2022-09-19T09:20:07;1.2749622;;1.2749017;;;;;;;
44530;SPS30;30240;47.418;0.700;2022-09-19T09:20:18;1.2749622;;1.2749017;;;;;;;
44530;SPS30;30240;47.418;0.700;2022-09-19T09:22:29;1.055311;;1.055311;;;;;;;
44530;SPS30;30240;47.418;0.700;2022-09-19T09:24:56;1.055311;;1.055311;;;;;;;
44530;SPS30;30240;47.418;0.700;2022-09-19T09:27:19;1.4661131;;1.4657354;;;;;;;
44530;SPS30;30240;47.418;0.700;2022-09-19T09:29:44;1.4527696;;1.4346038;;;;;;;
44530;SPS30;30240;47.418;0.700;2022-09-19T09:32:11;1.3723105;;1.3723105;;;;;;;
44530;SPS30;30240;47.418;0.700;2022-09-19T09:34:34;1.0906336;;1.0904155;;;;;;;
44530;SPS30;30240;47.418;0.700;2022-09-19T09:36:59;1.0906336;;1.0904155;;;;;;;
44530;SPS30;30240;47.418;0.700;2022-09-19T09:39:24;1.1363192;;1.1363109;;;;;;;
44530;SPS30;30240;47.418;0.700;2022-09-19T09:41:49;1.2344149;;1.2344149;;;;;;;
44530;SPS30;30240;47.418;0.700;2022-09-19T09:44:19;1.2172685;;1.2172685;;;;;;;
44530;SPS30;30240;47.418;0.700;2022-09-19T09:46:45;1.2356209;;1.2356209;;;;;;;
44530;SPS30;30240;47.418;0.700;2022-09-19T09:46:49;1.2356209;;1.2356209;;;;;;;
44530;SPS30;30240;47.418;0.700;2022-09-19T09:49:07;1.2356209;;1.2356209;;;;;;;
44530;SPS30;30240;47.418;0.700;2022-09-19T09:51:31;1.0885799;;1.0885799;;;;;;;
44530;SPS30;30240;47.418;0.700;2022-09-19T09:54:00;0.9678531;;0.9678531;;;;;;;
44530;SPS30;30240;47.418;0.700;2022-09-19T09:54:08;0.9678531;;0.9678531;;;;;;;
44530;SPS30;30240;47.418;0.700;2022-09-19T09:56:20;0.82111377;;0.82111377;;;;;;;
44530;SPS30;30240;47.418;0.700;2022-09-19T09:58:46;1.0132589;;1.0132589;;;;;;;
44530;SPS30;30240;47.418;0.700;2022-09-19T10:01:12;1.0132589;;1.0132589;;;;;;;
44530;SPS30;30240;47.418;0.700;2022-09-19T10:03:35;1.1919495;;1.1919495;;;;;;;
44530;SPS30;30240;47.418;0.700;2022-09-19T10:05:59;1.0839534;;1.0839534;;;;;;;
44530;SPS30;30240;47.418;0.700;2022-09-19T10:08:24;1.3490283;;1.3490283;;;;;;;
44530;SPS30;30240;47.418;0.700;2022-09-19T10:10:48;1.502261;;1.502261;;;;;;;
44530;SPS30;30240;47.418;0.700;2022-09-19T10:13:17;1.3268667;;1.3268667;;;;;;;
44530;SPS30;30240;47.418;0.700;2022-09-19T10:15:38;1.3268667;;1.3268667;;;;;;;
44530;SPS30;30240;47.418;0.700;2022-09-19T10:18:05;1.2019619;;1.2019619;;;;;;;
44530;SPS30;30240;47.418;0.700;2022-09-19T10:20:31;0.91106135;;0.91106135;;;;;;;
44530;SPS30;30240;47.418;0.700;2022-09-19T10:22:53;1.1649601;;1.1649601;;;;;;;
44530;SPS30;30240;47.418;0.700;2022-09-19T10:25:18;1.1104044;;1.1104044;;;;;;;
44530;SPS30;30240;47.418;0.700;2022-09-19T10:27:43;1.1104044;;1.1104044;;;;;;;
44530;SPS30;30240;47.418;0.700;2022-09-19T10:30:11;0.8239621;;0.8239621;;;;;;;
44530;SPS30;30240;47.418;0.700;2022-09-19T10:32:34;0.76159555;;0.76159555;;;;;;;
44530;SPS30;30240;47.418;0.700;2022-09-19T10:34:58;0.9167134;;0.9167134;;;;;;;
44530;SPS30;30240;47.418;0.700;2022-09-19T10:37:24;0.9027199;;0.9027199;;;;;;;
44530;SPS30;30240;47.418;0.700;2022-09-19T10:39:48;0.9027199;;0.9027199;;;;;;;
44530;SPS30;30240;47.418;0.700;2022-09-19T10:42:27;0.69528687;;0.69528687;;;;;;;
44530;SPS30;30240;47.418;0.700;2022-09-19T10:44:38;1.0079099;;1.0079099;;;;;;;
44530;SPS30;30240;47.418;0.700;2022-09-19T10:47:03;0.9795776;;0.9795776;;;;;;;
44530;SPS30;30240;47.418;0.700;2022-09-19T10:49:29;1.078906;;1.078906;;;;;;;
44530;SPS30;30240;47.418;0.700;2022-09-19T10:51:54;1.078906;;1.078906;;;;;;;
44530;SPS30;30240;47.418;0.700;2022-09-19T10:54:24;0.9224709;;0.9224709;;;;;;;
44530;SPS30;30240;47.418;0.700;2022-09-19T10:56:43;0.7975561;;0.7975561;;;;;;;
44530;SPS30;30240;47.418;0.700;2022-09-19T10:59:18;0.8528894;;0.8528894;;;;;;;
44530;SPS30;30240;47.418;0.700;2022-09-19T10:59:24;0.8528894;;0.8528894;;;;;;;
44530;SPS30;30240;47.418;0.700;2022-09-19T11:01:34;0.7119245;;0.7119245;;;;;;;
44530;SPS30;30240;47.418;0.700;2022-09-19T11:03:59;0.7119245;;0.7119245;;;;;;;
44530;SPS30;30240;47.418;0.700;2022-09-19T11:06:23;0.840283;;0.840283;;;;;;;
44530;SPS30;30240;47.418;0.700;2022-09-19T11:08:49;0.873372;;0.87336856;;;;;;;
44530;SPS30;30240;47.418;0.700;2022-09-19T11:11:21;0.86047995;;0.8554531;;;;;;;
44530;SPS30;30240;47.418;0.700;2022-09-19T11:13:38;0.96745116;;0.964062;;;;;;;
44530;SPS30;30240;47.418;0.700;2022-09-19T11:16:07;0.96745116;;0.964062;;;;;;;
44530;SPS30;30240;47.418;0.700;2022-09-19T11:18:30;0.80906206;;0.8089865;;;;;;;
44530;SPS30;30240;47.418;0.700;2022-09-19T11:20:54;1.1221312;;1.1111695;;;;;;;
44530;SPS30;30240;47.418;0.700;2022-09-19T11:23:23;0.9477063;;0.9438819;;;;;;;
44530;SPS30;30240;47.418;0.700;2022-09-19T11:23:31;0.9477063;;0.9438819;;;;;;;
44530;SPS30;30240;47.418;0.700;2022-09-19T11:23:39;0.9477063;;0.9438819;;;;;;;
44530;SPS30;30240;47.418;0.700;2022-09-19T11:25:45;0.9419022;;0.9419022;;;;;;;
44530;SPS30;30240;47.418;0.700;2022-09-19T11:28:12;0.9419022;;0.9419022;;;;;;;
44530;SPS30;30240;47.418;0.700;2022-09-19T11:30:34;1.1343712;;1.125224;;;;;;;
44530;SPS30;30240;47.418;0.700;2022-09-19T11:33:04;0.8141979;;0.80406564;;;;;;;